createdAt,value
2022-08-04T00:03:37.077Z,23.1
2022-08-04T00:07:44.845Z,23.0
2022-08-04T00:12:49.837Z,22.9
2022-08-04T00:17:56.300Z,22.9
2022-08-04T00:23:02.679Z,22.8
2022-08-04T00:28:09.129Z,22.8
2022-08-04T00:33:15.491Z,22.7
2022-08-04T00:38:45.903Z,22.7
2022-08-04T00:43:28.263Z,22.6
2022-08-04T00:48:54.679Z,22.6
2022-08-04T00:53:41.083Z,22.5
2022-08-04T00:58:47.504Z,22.5
2022-08-04T01:03:53.884Z,22.4
2022-08-04T01:09:00.257Z,22.4
2022-08-04T01:14:06.643Z,22.3
2022-08-04T01:19:13.024Z,22.3
2022-08-04T01:24:19.391Z,22.2
2022-08-04T01:29:26.287Z,22.1
2022-08-04T01:34:32.356Z,22.1
2022-08-04T01:39:58.875Z,22.0
2022-08-04T01:44:45.212Z,22.0
2022-08-04T01:49:51.603Z,21.9
2022-08-04T01:55:58.055Z,21.9
2022-08-04T02:00:28.379Z,21.9
2022-08-04T02:05:10.742Z,21.8
2022-08-04T02:10:37.178Z,21.8
2022-08-04T02:15:47.578Z,21.8
2022-08-04T02:20:29.918Z,21.8
2022-08-04T02:27:26.542Z,21.8
2022-08-04T02:32:48.132Z,21.8
2022-08-04T02:37:33.554Z,21.8
2022-08-04T02:42:49.957Z,21.8
2022-08-04T02:48:31.195Z,21.8
2022-08-04T02:53:46.835Z,21.8
2022-08-04T02:58:13.112Z,21.8
2022-08-04T03:03:15.483Z,21.7
2022-08-04T03:09:06.660Z,21.7
2022-08-04T03:13:18.933Z,21.7
2022-08-04T03:18:35.337Z,21.7
2022-08-04T03:29:43.222Z,21.7
2022-08-04T03:34:29.575Z,21.7
2022-08-04T03:45:17.404Z,21.6
2022-08-04T03:49:48.961Z,21.6
2022-08-04T03:55:15.379Z,21.6
2022-08-04T04:00:01.732Z,21.6
2022-08-04T04:04:58.108Z,21.6
2022-08-04T04:10:34.541Z,21.6
2022-08-04T04:15:20.907Z,21.6
2022-08-04T04:20:27.271Z,21.6
2022-08-04T04:25:33.651Z,21.6
2022-08-04T04:30:40.072Z,21.6
2022-08-04T04:35:50.445Z,21.6
2022-08-04T04:40:52.813Z,21.6
2022-08-04T04:45:59.199Z,21.6
2022-08-04T04:51:29.618Z,21.6
2022-08-04T04:56:01.975Z,21.6
2022-08-04T05:01:17.360Z,21.7
2022-08-04T05:06:24.737Z,21.7
2022-08-04T05:11:31.124Z,21.7
2022-08-04T05:16:27.589Z,21.8
2022-08-04T05:21:33.986Z,21.8
2022-08-04T05:27:18.430Z,21.9
2022-08-04T05:31:46.745Z,21.9
2022-08-04T05:37:47.242Z,22.2
2022-08-04T05:42:58.620Z,22.1
2022-08-04T05:48:01.000Z,22.3
2022-08-04T05:53:07.360Z,22.5
2022-08-04T05:59:25.958Z,22.6
2022-08-04T06:03:20.304Z,22.8
2022-08-04T06:08:26.682Z,22.9
2022-08-04T06:13:49.202Z,23.1
2022-08-04T06:23:53.789Z,23.4
2022-08-04T06:28:52.269Z,23.6
2022-08-04T06:33:58.654Z,23.7
2022-08-04T06:39:25.105Z,23.9
2022-08-04T06:44:31.443Z,24.1
2022-08-04T06:49:17.881Z,24.2
2022-08-04T06:54:24.366Z,24.4
2022-08-04T06:59:20.830Z,24.6
2022-08-04T07:05:05.845Z,24.8
2022-08-04T07:09:43.609Z,25.0
2022-08-04T07:14:49.987Z,25.2
2022-08-04T07:26:13.527Z,25.8
2022-08-04T07:31:33.182Z,25.8
2022-08-04T07:36:29.211Z,26.1
2022-08-04T07:41:35.952Z,26.5
2022-08-04T07:46:42.415Z,27.1
2022-08-04T07:51:44.799Z,27.9
2022-08-04T07:56:51.196Z,28.7
2022-08-04T08:01:57.573Z,29.4
2022-08-04T08:07:03.989Z,30.2
2022-08-04T08:12:36.712Z,31.0
2022-08-04T08:17:16.841Z,31.8
2022-08-04T08:22:23.217Z,32.4
2022-08-04T08:27:29.597Z,33.1
2022-08-04T08:32:35.975Z,33.7
2022-08-04T08:39:14.690Z,34.2
2022-08-04T08:42:48.745Z,34.7
2022-08-04T08:48:39.216Z,35.1
2022-08-04T08:58:49.083Z,37.2
2022-08-04T09:03:56.456Z,37.2
2022-08-04T09:09:02.961Z,37.9
2022-08-04T09:14:09.438Z,38.5
2022-08-04T09:19:22.690Z,39.1
2022-08-04T09:24:35.778Z,39.7
2022-08-04T09:29:27.686Z,40.2
2022-08-04T09:34:25.171Z,40.7
2022-08-04T09:40:01.818Z,41.2
2022-08-04T09:46:00.093Z,41.6
2022-08-04T09:49:54.350Z,42.1
2022-08-04T09:55:04.729Z,42.2
2022-08-04T10:00:40.483Z,41.4
2022-08-04T10:05:13.511Z,42.3
2022-08-04T10:10:19.855Z,42.9
2022-08-04T10:15:26.270Z,43.3
2022-08-04T10:20:36.559Z,43.7
2022-08-04T10:26:06.052Z,44.0
2022-08-04T10:30:45.502Z,44.4
2022-08-04T10:35:51.899Z,44.6
2022-08-04T10:40:58.278Z,44.8
2022-08-04T10:46:24.703Z,44.8
2022-08-04T10:56:17.461Z,44.1
2022-08-04T11:02:00.164Z,43.7
2022-08-04T11:06:30.254Z,43.3
2022-08-04T11:12:00.583Z,43.2
2022-08-04T11:17:17.120Z,43.6
2022-08-04T11:22:24.582Z,43.6
2022-08-04T11:27:31.373Z,43.7
2022-08-04T11:37:48.234Z,43.9
2022-08-04T11:42:50.636Z,44.0
2022-08-04T11:47:57.009Z,44.0
2022-08-04T11:58:12.807Z,43.7
2022-08-04T12:03:16.284Z,43.6
2022-08-04T12:08:22.649Z,43.3
2022-08-04T12:13:29.074Z,42.9
2022-08-04T12:18:55.463Z,42.6
2022-08-04T12:23:41.914Z,42.1
2022-08-04T12:29:16.221Z,41.7
2022-08-04T12:34:18.825Z,41.1
2022-08-04T12:39:25.281Z,40.6
2022-08-04T12:44:07.535Z,40.1
2022-08-04T12:49:03.896Z,39.5
2022-08-04T13:04:36.711Z,37.9
2022-08-04T13:09:42.072Z,37.5
2022-08-04T13:26:42.685Z,36.6
2022-08-04T13:30:43.735Z,36.3
2022-08-04T13:36:24.196Z,35.6
2022-08-04T13:41:31.588Z,35.6
2022-08-04T13:46:28.716Z,35.2
2022-08-04T13:51:57.924Z,34.8
2022-08-04T13:56:40.777Z,34.5
2022-08-04T14:01:57.630Z,34.3
2022-08-04T14:10:33.089Z,33.8
2022-08-04T14:16:02.828Z,33.8
2022-08-04T14:21:10.912Z,33.7
2022-08-04T14:25:43.212Z,33.6
2022-08-04T14:30:59.748Z,33.6
2022-08-04T14:36:26.265Z,33.5
2022-08-04T14:42:24.811Z,33.4
2022-08-04T14:46:08.961Z,33.3
2022-08-04T15:01:38.288Z,32.9
2022-08-04T15:06:44.540Z,32.8
2022-08-04T15:11:50.948Z,32.7
2022-08-04T15:17:01.340Z,32.5
2022-08-04T15:22:07.704Z,32.4
2022-08-04T15:27:10.069Z,32.2
2022-08-04T15:32:16.469Z,32.1
2022-08-04T15:37:22.986Z,32.0
2022-08-04T15:42:29.345Z,31.9
2022-08-04T15:47:25.705Z,31.7
2022-08-04T15:52:31.894Z,31.6
2022-08-04T15:57:52.498Z,31.5
2022-08-04T16:02:54.981Z,31.4
2022-08-04T16:08:01.470Z,31.3
2022-08-04T16:13:07.896Z,31.2
2022-08-04T16:18:04.230Z,31.1
2022-08-04T16:23:09.591Z,31.0
2022-08-04T16:38:40.409Z,30.8
2022-08-04T16:43:46.878Z,30.6
2022-08-04T16:48:57.282Z,30.5
2022-08-04T16:54:04.696Z,30.5
2022-08-04T16:59:06.025Z,30.4
2022-08-04T17:04:12.415Z,30.4
2022-08-04T17:09:19.013Z,30.3
2022-08-04T17:14:45.250Z,30.2
2022-08-04T17:19:31.635Z,30.1
2022-08-04T17:24:38.054Z,30.0
2022-08-04T17:29:45.214Z,29.9
2022-08-04T17:34:50.895Z,29.8
2022-08-04T17:39:57.342Z,29.7
2022-08-04T17:45:25.409Z,29.6
2022-08-04T17:50:30.055Z,29.5
2022-08-04T17:55:36.459Z,29.4
2022-08-04T18:00:51.263Z,29.2
2022-08-04T18:06:02.160Z,29.1
2022-08-04T18:10:46.318Z,29.0
2022-08-04T18:16:54.415Z,28.8
2022-08-04T18:20:50.202Z,28.7
2022-08-04T18:25:55.278Z,28.6
2022-08-04T18:30:55.240Z,28.5
2022-08-04T18:36:34.364Z,28.3
2022-08-04T18:41:15.031Z,28.2
2022-08-04T18:46:21.439Z,28.1
2022-08-04T18:51:49.067Z,27.9
2022-08-04T19:02:12.719Z,27.7
2022-08-04T19:06:47.070Z,27.6
2022-08-04T19:16:50.442Z,27.3
2022-08-04T19:22:08.232Z,27.1
2022-08-04T19:27:14.334Z,27.1
2022-08-04T19:32:20.825Z,26.9
2022-08-04T19:37:56.856Z,26.8
2022-08-04T19:43:07.430Z,26.7
2022-08-04T19:48:23.720Z,26.3
2022-08-04T19:53:37.457Z,26.3
2022-08-04T19:58:35.363Z,26.2
2022-08-04T20:13:56.523Z,25.7
2022-08-04T20:19:27.050Z,25.6
2022-08-04T20:24:37.620Z,25.5
2022-08-04T20:29:20.675Z,25.3
2022-08-04T20:39:54.667Z,25.1
2022-08-04T20:49:45.383Z,24.9
2022-08-04T20:54:56.146Z,24.7
2022-08-04T21:00:00.136Z,24.6
2022-08-04T21:05:49.000Z,24.5
2022-08-04T21:13:03.590Z,24.3
2022-08-04T21:15:58.468Z,24.2
2022-08-04T21:20:48.441Z,24.1
2022-08-04T21:25:50.493Z,23.9
2022-08-04T21:30:52.388Z,23.8
2022-08-04T21:36:43.359Z,23.7
2022-08-04T21:40:39.634Z,23.6
2022-08-04T21:46:20.070Z,23.5
2022-08-04T21:51:59.118Z,23.4
2022-08-04T21:56:09.072Z,23.3
2022-08-04T22:01:12.725Z,23.2
2022-08-04T22:11:18.028Z,23.0
2022-08-04T22:16:24.519Z,23.0
2022-08-04T22:21:30.902Z,22.9
2022-08-04T22:26:37.389Z,22.8
2022-08-04T22:34:32.083Z,22.8
2022-08-04T22:37:36.035Z,22.7
2022-08-04T22:42:13.296Z,22.7
2022-08-04T22:47:20.572Z,22.6
2022-08-04T22:58:50.947Z,22.5
2022-08-04T23:07:52.528Z,22.4
2022-08-04T23:12:44.881Z,22.4
2022-08-04T23:17:43.747Z,22.3
2022-08-04T23:22:57.635Z,22.2
2022-08-04T23:28:04.178Z,22.2
2022-08-04T23:33:51.148Z,22.1
2022-08-04T23:38:31.093Z,22.0
2022-08-04T23:43:23.284Z,21.9
2022-08-04T23:48:21.012Z,21.7
2022-08-04T23:53:35.968Z,21.6
2022-08-04T23:58:42.369Z,21.5
